createdAt,value
2023-02-14T00:01:20.689Z,23.20
2023-02-14T00:03:49.510Z,27.90
2023-02-14T00:06:17.414Z,27.83
2023-02-14T00:08:45.174Z,25.20
2023-02-14T00:11:13.339Z,26.30
2023-02-14T00:14:00.809Z,25.45
2023-02-14T00:16:28.106Z,24.92
2023-02-14T00:19:04.401Z,26.08
2023-02-14T00:21:36.126Z,27.15
2023-02-14T00:24:09.392Z,28.02
2023-02-14T00:26:40.149Z,26.80
2023-02-14T00:29:12.311Z,27.45
2023-02-14T00:31:40.594Z,26.90
2023-02-14T00:34:08.715Z,25.75
2023-02-14T00:36:36.466Z,25.23
2023-02-14T00:39:09.019Z,27.10
2023-02-14T00:41:38.649Z,25.63
2023-02-14T00:44:06.468Z,25.90
2023-02-14T00:46:34.489Z,26.63
2023-02-14T00:49:01.977Z,25.92
2023-02-14T00:51:29.321Z,26.98
2023-02-14T00:53:56.729Z,25.85
2023-02-14T00:56:24.037Z,27.13
2023-02-14T00:58:51.277Z,24.02
2023-02-14T01:01:19.336Z,24.75
2023-02-14T01:03:46.820Z,25.08
2023-02-14T01:06:14.918Z,24.13
2023-02-14T01:08:42.237Z,25.10
2023-02-14T01:11:16.232Z,25.27
2023-02-14T01:13:44.353Z,24.27
2023-02-14T01:16:14.798Z,25.08
2023-02-14T01:18:43.056Z,26.02
2023-02-14T01:21:25.132Z,24.83
2023-02-14T01:23:56.193Z,25.23
2023-02-14T01:26:24.552Z,24.33
2023-02-14T01:28:51.982Z,24.02
2023-02-14T01:31:22.497Z,23.33
2023-02-14T01:33:50.723Z,23.70
2023-02-14T01:36:28.340Z,25.00
2023-02-14T01:38:59.256Z,24.20
2023-02-14T01:41:28.632Z,23.52
2023-02-14T01:43:56.101Z,24.92
2023-02-14T01:46:26.187Z,24.63
2023-02-14T01:48:59.447Z,24.98
2023-02-14T01:51:26.750Z,23.70
2023-02-14T01:53:54.775Z,22.67
2023-02-14T01:56:31.486Z,23.77
2023-02-14T01:59:01.502Z,23.60
2023-02-14T02:01:30.437Z,24.45
2023-02-14T02:04:02.545Z,25.23
2023-02-14T02:06:41.893Z,23.98
2023-02-14T02:09:13.466Z,23.38
2023-02-14T02:11:41.865Z,24.15
2023-02-14T02:14:18.013Z,22.40
2023-02-14T02:16:57.433Z,24.10
2023-02-14T02:19:55.156Z,22.83
2023-02-14T02:22:41.957Z,22.90
2023-02-14T02:25:15.060Z,23.35
2023-02-14T02:27:59.016Z,23.58
2023-02-14T02:30:52.037Z,23.65
2023-02-14T02:33:48.617Z,23.80
2023-02-14T02:36:21.619Z,24.63
2023-02-14T02:39:04.258Z,24.42
2023-02-14T02:42:01.072Z,23.15
2023-02-14T02:44:43.211Z,25.00
2023-02-14T02:50:15.119Z,25.77
2023-02-14T02:53:04.197Z,26.38
2023-02-14T02:55:59.696Z,25.42
2023-02-14T02:58:36.898Z,26.83
2023-02-14T03:01:11.712Z,24.80
2023-02-14T03:03:59.862Z,28.17
2023-02-14T03:06:27.277Z,27.35
2023-02-14T03:08:54.461Z,26.73
2023-02-14T03:11:22.210Z,27.52
2023-02-14T03:14:08.724Z,26.50
2023-02-14T03:17:17.611Z,27.77
2023-02-14T03:20:16.045Z,27.88
2023-02-14T03:23:16.381Z,24.67
2023-02-14T03:25:48.728Z,27.52
2023-02-14T03:28:34.998Z,26.95
2023-02-14T03:31:08.215Z,26.88
2023-02-14T03:33:47.930Z,27.48
2023-02-14T03:36:46.971Z,26.52
2023-02-14T03:39:21.962Z,28.40
2023-02-14T03:42:13.220Z,25.70
2023-02-14T03:44:43.077Z,26.40
2023-02-14T03:47:13.397Z,27.70
2023-02-14T03:50:07.536Z,25.98
2023-02-14T03:52:36.833Z,25.08
2023-02-14T03:55:07.008Z,26.67
2023-02-14T03:58:00.524Z,25.27
2023-02-14T04:00:30.419Z,24.40
2023-02-14T04:03:03.327Z,25.25
2023-02-14T04:05:31.082Z,23.52
2023-02-14T04:07:59.647Z,23.70
2023-02-14T04:10:27.541Z,24.67
2023-02-14T04:12:54.814Z,25.20
2023-02-14T04:15:22.116Z,22.92
2023-02-14T04:18:07.847Z,24.88
2023-02-14T04:20:35.215Z,24.00
2023-02-14T04:23:03.611Z,23.88
2023-02-14T04:25:31.281Z,24.65
2023-02-14T04:27:58.462Z,25.00
2023-02-14T04:30:25.783Z,25.25
2023-02-14T04:32:53.011Z,24.98
2023-02-14T04:35:20.229Z,26.42
2023-02-14T04:37:47.492Z,26.48
2023-02-14T04:40:17.691Z,25.50
2023-02-14T04:42:46.583Z,26.05
2023-02-14T04:45:14.828Z,24.98
2023-02-14T04:47:42.072Z,25.73
2023-02-14T04:50:09.672Z,25.67
2023-02-14T04:52:36.985Z,25.45
2023-02-14T04:55:05.059Z,26.52
2023-02-14T04:57:32.496Z,23.63
2023-02-14T04:59:59.723Z,26.17
2023-02-14T05:02:27.090Z,25.23
2023-02-14T05:04:54.339Z,26.60
2023-02-14T05:07:21.529Z,25.38
2023-02-14T05:09:48.752Z,31.20
2023-02-14T05:12:16.967Z,28.52
2023-02-14T05:14:44.229Z,27.30
2023-02-14T05:17:11.589Z,26.80
2023-02-14T05:19:38.816Z,25.35
2023-02-14T05:22:06.017Z,27.15
2023-02-14T05:24:33.367Z,26.45
2023-02-14T05:27:00.538Z,26.10
2023-02-14T05:29:27.890Z,26.67
2023-02-14T05:31:55.182Z,27.17
2023-02-14T05:34:22.497Z,25.33
2023-02-14T05:36:49.805Z,23.70
2023-02-14T05:39:16.968Z,26.65
2023-02-14T05:41:44.202Z,26.30
2023-02-14T05:44:11.449Z,25.92
2023-02-14T05:46:38.655Z,26.63
2023-02-14T05:49:05.920Z,24.38
2023-02-14T05:51:33.193Z,26.00
2023-02-14T05:54:01.296Z,26.00
2023-02-14T05:56:28.534Z,25.48
2023-02-14T05:58:55.700Z,25.25
2023-02-14T06:01:22.978Z,25.40
2023-02-14T06:03:50.250Z,25.30
2023-02-14T06:06:17.468Z,25.48
2023-02-14T06:08:44.744Z,24.98
2023-02-14T06:11:11.983Z,24.95
2023-02-14T06:13:41.629Z,27.58
2023-02-14T06:16:09.050Z,24.42
2023-02-14T06:18:36.510Z,26.95
2023-02-14T06:21:04.115Z,27.27
2023-02-14T06:23:31.331Z,27.77
2023-02-14T06:25:58.566Z,26.50
2023-02-14T06:28:25.813Z,25.13
2023-02-14T06:30:53.203Z,25.92
2023-02-14T06:33:20.647Z,26.83
2023-02-14T06:35:47.890Z,27.00
2023-02-14T06:38:15.194Z,27.38
2023-02-14T06:40:42.494Z,27.95
2023-02-14T06:43:09.678Z,27.13
2023-02-14T06:45:37.017Z,28.77
2023-02-14T06:48:04.428Z,25.10
2023-02-14T06:50:31.718Z,26.27
2023-02-14T06:52:58.908Z,25.80
2023-02-14T06:55:26.464Z,26.58
2023-02-14T06:57:53.726Z,25.13
2023-02-14T07:00:21.468Z,25.90
2023-02-14T07:02:48.687Z,26.08
2023-02-14T07:05:19.079Z,27.17
2023-02-14T07:07:46.817Z,27.40
2023-02-14T07:10:14.817Z,26.50
2023-02-14T07:12:42.297Z,24.45
2023-02-14T07:15:12.636Z,25.45
2023-02-14T07:17:40.390Z,24.90
2023-02-14T07:20:09.674Z,25.77
2023-02-14T07:22:38.068Z,26.42
2023-02-14T07:25:07.214Z,26.38
2023-02-14T07:27:37.191Z,27.35
2023-02-14T07:30:06.237Z,25.25
2023-02-14T07:32:34.366Z,26.40
2023-02-14T07:35:01.547Z,24.00
2023-02-14T07:37:28.797Z,25.33
2023-02-14T07:39:56.029Z,26.30
2023-02-14T07:42:23.259Z,27.40
2023-02-14T07:44:50.517Z,27.02
2023-02-14T07:47:17.868Z,25.42
2023-02-14T07:49:45.323Z,27.25
2023-02-14T07:52:12.736Z,27.58
2023-02-14T07:54:39.958Z,26.65
2023-02-14T07:57:07.167Z,25.27
2023-02-14T07:59:34.862Z,26.75
2023-02-14T08:02:02.176Z,27.67
2023-02-14T08:04:30.265Z,26.48
2023-02-14T08:06:58.515Z,26.63
2023-02-14T08:09:25.791Z,26.23
2023-02-14T08:12:13.762Z,25.80
2023-02-14T08:14:42.144Z,24.65
2023-02-14T08:17:14.003Z,24.77
2023-02-14T08:22:08.552Z,26.55
2023-02-14T08:24:35.794Z,25.35
2023-02-14T08:27:03.222Z,27.42
2023-02-14T08:29:30.557Z,26.33
2023-02-14T08:32:00.557Z,26.33
2023-02-14T08:34:27.824Z,27.20
2023-02-14T08:36:55.477Z,25.00
2023-02-14T08:39:22.695Z,26.08
2023-02-14T08:41:49.992Z,25.92
2023-02-14T08:44:17.283Z,26.45
2023-02-14T08:46:44.753Z,25.90
2023-02-14T08:49:12.050Z,25.45
2023-02-14T08:51:39.267Z,24.75
2023-02-14T08:54:06.662Z,23.92
2023-02-14T08:56:33.923Z,24.67
2023-02-14T08:59:01.211Z,24.70
2023-02-14T09:01:29.272Z,24.83
2023-02-14T09:03:58.120Z,26.00
2023-02-14T09:06:25.585Z,24.10
2023-02-14T09:08:55.286Z,25.08
2023-02-14T09:11:25.160Z,24.20
2023-02-14T09:13:53.636Z,23.08
2023-02-14T09:16:22.227Z,23.73
2023-02-14T09:18:50.096Z,23.80
2023-02-14T09:21:21.512Z,23.60
2023-02-14T09:23:48.793Z,23.33
2023-02-14T09:26:16.833Z,21.58
2023-02-14T09:28:44.648Z,25.08
2023-02-14T09:31:17.782Z,24.45
2023-02-14T09:34:05.725Z,21.83
2023-02-14T09:36:33.061Z,23.17
2023-02-14T09:39:00.335Z,22.55
2023-02-14T09:41:30.426Z,23.17
2023-02-14T09:44:08.820Z,22.75
2023-02-14T09:46:48.617Z,23.50
2023-02-14T09:49:19.594Z,22.33
2023-02-14T09:51:51.693Z,22.55
2023-02-14T09:54:24.507Z,22.85
2023-02-14T09:57:10.245Z,22.80
2023-02-14T09:59:40.639Z,22.10
2023-02-14T10:02:44.952Z,20.23
2023-02-14T10:05:17.390Z,20.13
2023-02-14T10:08:03.546Z,20.70
2023-02-14T10:10:39.732Z,20.48
2023-02-14T10:13:42.932Z,19.42
2023-02-14T10:16:32.601Z,20.02
2023-02-14T10:19:21.893Z,19.55
2023-02-14T10:22:20.888Z,19.60
2023-02-14T10:25:08.214Z,18.20
2023-02-14T10:27:46.147Z,18.55
2023-02-14T10:30:20.600Z,17.65
2023-02-14T10:32:49.520Z,18.13
2023-02-14T10:35:25.504Z,19.23
2023-02-14T10:38:05.575Z,17.83
2023-02-14T10:40:47.321Z,16.80
2023-02-14T10:43:39.001Z,17.45
2023-02-14T10:46:22.308Z,17.80
2023-02-14T10:48:58.634Z,17.90
2023-02-14T10:51:47.043Z,17.70
2023-02-14T10:54:32.068Z,16.88
2023-02-14T10:57:04.228Z,17.40
2023-02-14T10:59:44.413Z,17.90
2023-02-14T11:02:16.070Z,16.35
2023-02-14T11:04:46.757Z,17.77
2023-02-14T11:07:16.049Z,16.88
2023-02-14T11:09:43.423Z,17.20
2023-02-14T11:12:11.169Z,15.75
2023-02-14T11:14:40.177Z,16.00
2023-02-14T11:17:27.906Z,16.73
2023-02-14T11:20:07.350Z,15.65
2023-02-14T11:22:35.554Z,15.75
2023-02-14T11:25:14.035Z,16.70
2023-02-14T11:27:49.922Z,16.38
2023-02-14T11:30:31.746Z,17.17
2023-02-14T11:32:59.116Z,16.40
2023-02-14T11:35:34.009Z,16.95
2023-02-14T11:38:03.975Z,17.48
2023-02-14T11:40:38.819Z,16.88
2023-02-14T11:43:14.616Z,16.20
2023-02-14T11:45:44.625Z,16.83
2023-02-14T11:48:37.226Z,16.95
2023-02-14T11:51:10.074Z,16.20
2023-02-14T11:56:07.568Z,16.25
2023-02-14T11:58:39.322Z,17.80
2023-02-14T12:01:07.849Z,17.38
2023-02-14T12:03:45.203Z,16.38
2023-02-14T12:06:13.764Z,15.40
2023-02-14T12:08:42.093Z,15.57
2023-02-14T12:11:23.838Z,16.65
2023-02-14T12:13:55.947Z,18.08
2023-02-14T12:16:39.120Z,15.07
2023-02-14T12:19:16.269Z,16.15
2023-02-14T12:22:01.353Z,15.82
2023-02-14T12:24:28.503Z,15.27
2023-02-14T12:27:10.640Z,16.10
2023-02-14T12:32:21.053Z,15.50
2023-02-14T12:34:49.764Z,16.65
2023-02-14T12:37:28.792Z,15.45
2023-02-14T12:40:16.686Z,15.43
2023-02-14T12:43:37.319Z,15.45
2023-02-14T12:46:12.773Z,16.30
2023-02-14T12:49:17.055Z,15.32
2023-02-14T12:52:11.794Z,14.18
2023-02-14T12:54:44.887Z,15.27
2023-02-14T12:57:42.285Z,14.88
2023-02-14T13:00:35.332Z,14.57
2023-02-14T13:03:40.457Z,15.55
2023-02-14T13:06:29.415Z,13.95
2023-02-14T13:09:08.305Z,12.98
2023-02-14T13:12:12.229Z,14.07
2023-02-14T13:14:48.022Z,14.80
2023-02-14T13:17:40.571Z,13.15
2023-02-14T13:20:26.441Z,14.27
2023-02-14T13:22:57.855Z,13.85
2023-02-14T13:25:31.813Z,13.15
2023-02-14T13:28:02.640Z,15.32
2023-02-14T13:30:32.274Z,14.13
2023-02-14T13:33:06.229Z,15.55
2023-02-14T13:35:34.497Z,15.35
2023-02-14T13:38:08.800Z,15.13
2023-02-14T13:40:36.632Z,14.27
2023-02-14T13:43:04.476Z,14.57
2023-02-14T13:45:40.430Z,15.10
2023-02-14T13:48:13.518Z,14.60
2023-02-14T13:50:53.125Z,13.63
2023-02-14T13:53:34.860Z,14.32
2023-02-14T13:56:15.418Z,14.18
2023-02-14T13:58:53.516Z,13.90
2023-02-14T14:01:48.415Z,15.13
2023-02-14T14:04:28.186Z,14.23
2023-02-14T14:07:04.458Z,13.15
2023-02-14T14:09:47.680Z,14.18
2023-02-14T14:12:27.138Z,14.90
2023-02-14T14:15:16.402Z,13.50
2023-02-14T14:18:06.046Z,14.10
2023-02-14T14:20:42.328Z,13.32
2023-02-14T14:23:37.158Z,14.35
2023-02-14T14:26:34.132Z,14.40
2023-02-14T14:29:01.814Z,12.77
2023-02-14T14:31:29.910Z,15.60
2023-02-14T14:34:01.306Z,15.73
2023-02-14T14:36:29.051Z,14.80
2023-02-14T14:38:56.552Z,15.30
2023-02-14T14:41:29.593Z,14.15
2023-02-14T14:43:58.313Z,14.70
2023-02-14T14:46:25.618Z,13.27
2023-02-14T14:48:55.421Z,14.25
2023-02-14T14:51:29.037Z,14.68
2023-02-14T14:54:13.688Z,15.40
2023-02-14T14:57:01.738Z,17.25
2023-02-14T14:59:35.299Z,20.27
2023-02-14T15:02:05.617Z,20.77
2023-02-14T15:04:35.500Z,16.17
2023-02-14T15:07:21.076Z,14.50
2023-02-14T15:09:48.418Z,15.07
2023-02-14T15:12:41.079Z,14.93
2023-02-14T15:15:12.096Z,15.00
2023-02-14T15:17:42.159Z,15.95
2023-02-14T15:20:22.148Z,13.07
2023-02-14T15:22:52.646Z,13.90
2023-02-14T15:25:26.637Z,16.27
2023-02-14T15:27:54.256Z,17.48
2023-02-14T15:30:38.055Z,15.30
2023-02-14T15:33:07.277Z,15.52
2023-02-14T15:35:39.095Z,17.10
2023-02-14T15:38:10.688Z,14.90
2023-02-14T15:40:38.954Z,16.38
2023-02-14T15:43:22.334Z,15.27
2023-02-14T15:45:53.054Z,16.60
2023-02-14T15:48:29.544Z,15.85
2023-02-14T15:50:59.817Z,15.88
2023-02-14T15:53:53.782Z,16.40
2023-02-14T15:56:29.636Z,14.27
2023-02-14T15:59:01.679Z,16.08
2023-02-14T16:01:30.707Z,17.13
2023-02-14T16:04:01.852Z,17.15
2023-02-14T16:06:38.514Z,17.38
2023-02-14T16:09:22.716Z,17.95
2023-02-14T16:11:50.018Z,16.90
2023-02-14T16:14:37.200Z,18.02
2023-02-14T16:17:11.915Z,16.98
2023-02-14T16:19:48.195Z,18.17
2023-02-14T16:22:32.275Z,17.50
2023-02-14T16:24:59.798Z,17.60
2023-02-14T16:27:27.268Z,18.48
2023-02-14T16:29:54.568Z,19.08
2023-02-14T16:32:24.681Z,17.73
2023-02-14T16:34:52.232Z,19.27
2023-02-14T16:37:25.404Z,19.40
2023-02-14T16:39:57.785Z,18.98
2023-02-14T16:42:25.360Z,18.60
2023-02-14T16:44:53.293Z,19.67
2023-02-14T16:47:21.480Z,18.95
2023-02-14T16:49:50.701Z,20.25
2023-02-14T16:52:23.855Z,19.80
2023-02-14T16:54:52.093Z,19.83
2023-02-14T16:57:23.392Z,19.70
2023-02-14T16:59:51.152Z,21.05
2023-02-14T17:02:19.218Z,18.33
2023-02-14T17:04:46.538Z,19.05
2023-02-14T17:07:15.671Z,18.42
2023-02-14T17:09:49.029Z,17.95
2023-02-14T17:12:21.287Z,21.30
2023-02-14T17:14:50.956Z,18.52
2023-02-14T17:17:20.039Z,20.27
2023-02-14T17:19:47.407Z,20.88
2023-02-14T17:22:15.179Z,20.10
2023-02-14T17:24:42.530Z,19.17
2023-02-14T17:27:10.162Z,21.20
2023-02-14T17:29:37.446Z,19.48
2023-02-14T17:32:04.969Z,21.05
2023-02-14T17:34:33.676Z,19.63
2023-02-14T17:37:01.452Z,20.02
2023-02-14T17:39:28.787Z,20.83
2023-02-14T17:41:57.007Z,18.65
2023-02-14T17:44:24.583Z,20.15
2023-02-14T17:46:54.747Z,20.90
2023-02-14T17:49:22.085Z,18.90
2023-02-14T17:51:49.500Z,21.60
2023-02-14T17:54:17.128Z,19.42
2023-02-14T17:56:44.689Z,21.80
2023-02-14T17:59:12.173Z,22.45
2023-02-14T18:01:39.597Z,22.88
2023-02-14T18:04:07.202Z,21.27
2023-02-14T18:06:34.570Z,22.23
2023-02-14T18:09:06.303Z,20.15
2023-02-14T18:11:33.716Z,21.02
2023-02-14T18:14:01.958Z,21.80
2023-02-14T18:16:29.564Z,20.85
2023-02-14T18:18:56.941Z,20.42
2023-02-14T18:21:24.743Z,20.40
2023-02-14T18:23:52.208Z,20.60
2023-02-14T18:26:19.834Z,21.63
2023-02-14T18:28:47.170Z,21.33
2023-02-14T18:31:17.199Z,20.88
2023-02-14T18:33:47.038Z,22.63
2023-02-14T18:36:20.372Z,22.25
2023-02-14T18:38:49.006Z,22.38
2023-02-14T18:41:18.748Z,21.55
2023-02-14T18:43:46.486Z,20.67
2023-02-14T18:46:16.515Z,24.50
2023-02-14T18:48:44.392Z,23.85
2023-02-14T18:51:20.105Z,27.02
2023-02-14T18:53:48.304Z,27.00
2023-02-14T18:56:18.605Z,23.33
2023-02-14T18:58:48.824Z,25.70
2023-02-14T19:01:19.651Z,23.85
2023-02-14T19:03:47.118Z,22.67
2023-02-14T19:06:14.391Z,22.95
2023-02-14T19:08:41.897Z,23.10
2023-02-14T19:11:14.571Z,26.92
2023-02-14T19:13:49.968Z,25.67
2023-02-14T19:16:20.378Z,25.25
2023-02-14T19:18:49.753Z,29.30
2023-02-14T19:21:22.651Z,28.92
2023-02-14T19:23:50.675Z,26.30
2023-02-14T19:26:24.739Z,25.95
2023-02-14T19:28:57.040Z,24.38
2023-02-14T19:31:25.012Z,23.50
2023-02-14T19:33:52.704Z,24.95
2023-02-14T19:36:21.488Z,24.33
2023-02-14T19:38:51.346Z,24.65
2023-02-14T19:41:27.938Z,25.25
2023-02-14T19:43:59.077Z,25.15
2023-02-14T19:46:27.869Z,24.73
2023-02-14T19:48:59.049Z,28.08
2023-02-14T19:51:36.384Z,25.83
2023-02-14T19:54:05.898Z,26.27
2023-02-14T19:56:38.638Z,24.70
2023-02-14T19:59:14.482Z,25.55
2023-02-14T20:01:47.442Z,25.58
2023-02-14T20:04:20.726Z,27.90
2023-02-14T20:06:48.856Z,28.25
2023-02-14T20:09:18.004Z,27.92
2023-02-14T20:11:52.232Z,27.15
2023-02-14T20:14:21.667Z,23.83
2023-02-14T20:16:49.472Z,26.88
2023-02-14T20:19:19.827Z,25.85
2023-02-14T20:21:50.064Z,25.27
2023-02-14T20:24:20.418Z,24.88
2023-02-14T20:26:49.121Z,25.55
2023-02-14T20:29:17.696Z,26.55
2023-02-14T20:31:47.839Z,26.55
2023-02-14T20:34:15.772Z,24.27
2023-02-14T20:36:49.711Z,24.70
2023-02-14T20:39:17.026Z,24.90
2023-02-14T20:41:48.430Z,24.55
2023-02-14T20:44:19.874Z,24.67
2023-02-14T20:46:48.847Z,24.02
2023-02-14T20:49:16.647Z,25.08
2023-02-14T20:51:46.620Z,23.00
2023-02-14T20:54:13.903Z,23.85
2023-02-14T20:56:41.887Z,24.40
2023-02-14T20:59:11.491Z,22.67
2023-02-14T21:01:39.558Z,22.60
2023-02-14T21:04:07.171Z,23.67
2023-02-14T21:06:35.600Z,24.08
2023-02-14T21:09:03.987Z,24.58
2023-02-14T21:11:31.255Z,24.88
2023-02-14T21:14:00.226Z,25.42
2023-02-14T21:16:29.223Z,22.05
2023-02-14T21:19:01.578Z,24.83
2023-02-14T21:21:36.273Z,22.98
2023-02-14T21:24:10.036Z,22.63
2023-02-14T21:26:38.190Z,22.02
2023-02-14T21:29:06.542Z,25.00
2023-02-14T21:31:34.258Z,23.55
2023-02-14T21:34:03.262Z,23.08
2023-02-14T21:36:32.596Z,23.00
2023-02-14T21:39:00.664Z,21.30
2023-02-14T21:41:30.389Z,20.80
2023-02-14T21:43:59.376Z,21.40
2023-02-14T21:46:31.209Z,21.10
2023-02-14T21:51:45.739Z,20.83
2023-02-14T21:54:13.571Z,23.05
2023-02-14T21:56:43.923Z,21.38
2023-02-14T21:59:11.633Z,22.70
2023-02-14T22:01:41.323Z,22.02
2023-02-14T22:04:10.854Z,25.48
2023-02-14T22:06:39.977Z,23.02
2023-02-14T22:09:07.740Z,21.10
2023-02-14T22:11:35.360Z,21.50
2023-02-14T22:14:02.880Z,23.08
2023-02-14T22:16:30.338Z,20.65
2023-02-14T22:18:57.570Z,20.20
2023-02-14T22:21:26.737Z,20.33
2023-02-14T22:23:55.321Z,19.70
2023-02-14T22:26:30.685Z,19.48
2023-02-14T22:29:00.756Z,19.60
2023-02-14T22:31:30.257Z,19.40
2023-02-14T22:33:57.716Z,20.00
2023-02-14T22:36:24.980Z,20.42
2023-02-14T22:38:52.293Z,19.77
2023-02-14T22:41:22.981Z,19.67
2023-02-14T22:43:51.253Z,19.65
2023-02-14T22:46:28.852Z,19.02
2023-02-14T22:48:57.562Z,18.83
2023-02-14T22:51:29.499Z,18.95
2023-02-14T22:56:30.180Z,18.60
2023-02-14T22:59:00.432Z,19.05
2023-02-14T23:01:28.230Z,16.77
2023-02-14T23:03:57.271Z,18.52
2023-02-14T23:06:26.321Z,17.95
2023-02-14T23:08:54.395Z,18.15
2023-02-14T23:11:24.801Z,17.45
2023-02-14T23:14:10.940Z,16.95
2023-02-14T23:16:57.077Z,20.50
2023-02-14T23:19:53.656Z,18.77
2023-02-14T23:22:26.680Z,19.33
2023-02-14T23:24:57.390Z,18.85
2023-02-14T23:27:31.041Z,18.48
2023-02-14T23:29:58.575Z,19.00
2023-02-14T23:32:26.315Z,18.27
2023-02-14T23:34:53.549Z,16.83
2023-02-14T23:37:20.767Z,16.60
2023-02-14T23:39:47.954Z,16.67
2023-02-14T23:42:16.312Z,16.48
2023-02-14T23:44:44.744Z,16.55
2023-02-14T23:47:13.274Z,17.05
2023-02-14T23:49:41.243Z,14.52
2023-02-14T23:52:11.223Z,16.88
2023-02-14T23:54:39.468Z,15.25
2023-02-14T23:57:08.082Z,15.10
2023-02-14T23:59:35.363Z,16.45
